sensor_id;sensor_type;location;lat;lon;timestamp;pressure;altitude;pressure_sealevel;temperature;humidity
52105;BME280;38103;42.776;23.112;2023-01-08T00:00:05;94455.44;;;-0.57;100.00
52105;BME280;38103;42.776;23.112;2023-01-08T00:02:31;94445.16;;;-0.67;100.00
52105;BME280;38103;42.776;23.112;2023-01-08T00:04:56;94447.31;;;-0.81;100.00
52105;BME280;38103;42.776;23.112;2023-01-08T00:07:21;94449.69;;;-0.87;100.00
52105;BME280;38103;42.776;23.112;2023-01-08T00:09:47;94450.59;;;-0.97;100.00
52105;BME280;38103;42.776;23.112;2023-01-08T00:12:14;94454.94;;;-1.06;100.00
52105;BME280;38103;42.776;23.112;2023-01-08T00:14:40;94444.69;;;-1.26;100.00
52105;BME280;38103;42.776;23.112;2023-01-08T00:17:05;94452.75;;;-1.29;100.00
52105;BME280;38103;42.776;23.112;2023-01-08T00:19:31;94459.59;;;-1.28;100.00
52105;BME280;38103;42.776;23.112;2023-01-08T00:21:56;94453.56;;;-1.28;100.00
52105;BME280;38103;42.776;23.112;2023-01-08T00:24:21;94451.50;;;-1.25;100.00
52105;BME280;38103;42.776;23.112;2023-01-08T00:26:47;94438.75;;;-1.18;100.00
52105;BME280;38103;42.776;23.112;2023-01-08T00:29:12;94441.22;;;-1.16;100.00
52105;BME280;38103;42.776;23.112;2023-01-08T00:31:37;94447.44;;;-1.09;100.00
52105;BME280;38103;42.776;23.112;2023-01-08T00:34:03;94411.41;;;-1.30;100.00
52105;BME280;38103;42.776;23.112;2023-01-08T00:36:28;94440.88;;;-1.13;100.00
52105;BME280;38103;42.776;23.112;2023-01-08T00:38:53;94436.75;;;-1.06;100.00
52105;BME280;38103;42.776;23.112;2023-01-08T00:41:19;94447.25;;;-0.89;100.00
52105;BME280;38103;42.776;23.112;2023-01-08T00:43:44;94449.91;;;-0.81;100.00
52105;BME280;38103;42.776;23.112;2023-01-08T00:46:09;94439.09;;;-0.94;100.00
52105;BME280;38103;42.776;23.112;2023-01-08T00:48:35;94432.44;;;-1.15;100.00
52105;BME280;38103;42.776;23.112;2023-01-08T00:51:05;94453.50;;;-1.18;100.00
52105;BME280;38103;42.776;23.112;2023-01-08T00:53:31;94464.41;;;-1.15;100.00
52105;BME280;38103;42.776;23.112;2023-01-08T00:56:05;94423.34;;;-1.38;100.00
52105;BME280;38103;42.776;23.112;2023-01-08T00:58:31;94445.66;;;-1.27;100.00
52105;BME280;38103;42.776;23.112;2023-01-08T01:00:56;94452.75;;;-1.29;100.00
52105;BME280;38103;42.776;23.112;2023-01-08T01:03:21;94457.94;;;-1.29;100.00
52105;BME280;38103;42.776;23.112;2023-01-08T01:05:47;94457.94;;;-1.29;100.00
52105;BME280;38103;42.776;23.112;2023-01-08T01:08:13;94464.84;;;-1.38;100.00
52105;BME280;38103;42.776;23.112;2023-01-08T01:10:39;94459.72;;;-1.48;100.00
52105;BME280;38103;42.776;23.112;2023-01-08T01:13:04;94459.19;;;-1.51;100.00
52105;BME280;38103;42.776;23.112;2023-01-08T01:15:30;94460.59;;;-1.57;100.00
52105;BME280;38103;42.776;23.112;2023-01-08T01:17:55;94455.34;;;-1.65;100.00
52105;BME280;38103;42.776;23.112;2023-01-08T01:20:21;94456.09;;;-1.55;100.00
52105;BME280;38103;42.776;23.112;2023-01-08T01:22:48;94454.25;;;-1.44;100.00
52105;BME280;38103;42.776;23.112;2023-01-08T01:25:13;94449.34;;;-1.48;100.00
52105;BME280;38103;42.776;23.112;2023-01-08T01:27:38;94449.94;;;-1.54;100.00
52105;BME280;38103;42.776;23.112;2023-01-08T01:30:04;94444.00;;;-1.64;100.00
52105;BME280;38103;42.776;23.112;2023-01-08T01:32:30;94444.31;;;-1.67;100.00
52105;BME280;38103;42.776;23.112;2023-01-08T01:34:56;94438.59;;;-1.71;100.00
52105;BME280;38103;42.776;23.112;2023-01-08T01:37:21;94446.03;;;-1.86;100.00
52105;BME280;38103;42.776;23.112;2023-01-08T01:39:46;94443.88;;;-1.91;100.00
52105;BME280;38103;42.776;23.112;2023-01-08T01:42:16;94437.00;;;-1.82;100.00
52105;BME280;38103;42.776;23.112;2023-01-08T01:45:17;94437.00;;;-1.82;100.00
52105;BME280;38103;42.776;23.112;2023-01-08T01:47:46;94423.66;;;-1.87;100.00
52105;BME280;38103;42.776;23.112;2023-01-08T01:50:20;94421.22;;;-1.89;100.00
52105;BME280;38103;42.776;23.112;2023-01-08T01:52:57;94429.59;;;-1.77;100.00
52105;BME280;38103;42.776;23.112;2023-01-08T01:55:25;94434.16;;;-1.61;100.00
52105;BME280;38103;42.776;23.112;2023-01-08T01:57:57;94422.81;;;-1.41;100.00
52105;BME280;38103;42.776;23.112;2023-01-08T02:00:25;94425.78;;;-1.36;100.00
52105;BME280;38103;42.776;23.112;2023-01-08T02:02:52;94406.59;;;-1.43;100.00
52105;BME280;38103;42.776;23.112;2023-01-08T02:05:18;94424.59;;;-1.24;100.00
52105;BME280;38103;42.776;23.112;2023-01-08T02:08:01;94420.00;;;-1.30;100.00
52105;BME280;38103;42.776;23.112;2023-01-08T02:10:37;94422.53;;;-1.38;100.00
52105;BME280;38103;42.776;23.112;2023-01-08T02:13:09;94417.13;;;-1.45;100.00
52105;BME280;38103;42.776;23.112;2023-01-08T02:15:43;94420.91;;;-1.58;100.00
52105;BME280;38103;42.776;23.112;2023-01-08T02:18:15;94415.41;;;-1.73;100.00
52105;BME280;38103;42.776;23.112;2023-01-08T02:20:46;94417.63;;;-1.78;100.00
52105;BME280;38103;42.776;23.112;2023-01-08T02:28:30;94412.53;;;-1.98;100.00
52105;BME280;38103;42.776;23.112;2023-01-08T02:30:58;94408.91;;;-2.05;100.00
52105;BME280;38103;42.776;23.112;2023-01-08T02:33:27;94406.69;;;-2.00;100.00
52105;BME280;38103;42.776;23.112;2023-01-08T02:38:36;94404.84;;;-1.89;100.00
52105;BME280;38103;42.776;23.112;2023-01-08T02:41:08;94401.00;;;-1.85;100.00
52105;BME280;38103;42.776;23.112;2023-01-08T02:43:41;94396.34;;;-1.82;100.00
52105;BME280;38103;42.776;23.112;2023-01-08T02:46:13;94405.31;;;-1.76;100.00
52105;BME280;38103;42.776;23.112;2023-01-08T02:48:48;94402.72;;;-1.76;100.00
52105;BME280;38103;42.776;23.112;2023-01-08T02:53:47;94407.66;;;-2.01;100.00
52105;BME280;38103;42.776;23.112;2023-01-08T02:56:20;94398.44;;;-2.14;100.00
52105;BME280;38103;42.776;23.112;2023-01-08T02:58:48;94402.75;;;-2.04;100.00
52105;BME280;38103;42.776;23.112;2023-01-08T03:01:15;94392.13;;;-2.01;100.00
52105;BME280;38103;42.776;23.112;2023-01-08T03:03:45;94400.25;;;-1.96;100.00
52105;BME280;38103;42.776;23.112;2023-01-08T03:06:15;94402.47;;;-2.01;100.00
52105;BME280;38103;42.776;23.112;2023-01-08T03:08:45;94402.16;;;-1.98;100.00
52105;BME280;38103;42.776;23.112;2023-01-08T03:11:16;94397.59;;;-2.04;100.00
52105;BME280;38103;42.776;23.112;2023-01-08T03:14:02;94400.63;;;-2.19;100.00
52105;BME280;38103;42.776;23.112;2023-01-08T03:16:34;94397.00;;;-2.26;100.00
52105;BME280;38103;42.776;23.112;2023-01-08T03:19:06;94404.53;;;-2.33;100.00
52105;BME280;38103;42.776;23.112;2023-01-08T03:21:34;94396.53;;;-2.40;100.00
52105;BME280;38103;42.776;23.112;2023-01-08T03:24:01;94395.44;;;-2.47;100.00
52105;BME280;38103;42.776;23.112;2023-01-08T03:26:29;94401.00;;;-2.42;100.00
52105;BME280;38103;42.776;23.112;2023-01-08T03:28:57;94401.31;;;-2.45;100.00
52105;BME280;38103;42.776;23.112;2023-01-08T03:31:25;94399.66;;;-2.46;100.00
52105;BME280;38103;42.776;23.112;2023-01-08T03:33:52;94401.59;;;-2.48;100.00
52105;BME280;38103;42.776;23.112;2023-01-08T03:36:24;94392.84;;;-2.47;100.00
52105;BME280;38103;42.776;23.112;2023-01-08T03:39:20;94392.78;;;-2.55;100.00
52105;BME280;38103;42.776;23.112;2023-01-08T03:41:48;94375.44;;;-2.45;100.00
52105;BME280;38103;42.776;23.112;2023-01-08T03:44:14;94391.53;;;-2.23;100.00
52105;BME280;38103;42.776;23.112;2023-01-08T03:46:45;94389.13;;;-2.06;100.00
52105;BME280;38103;42.776;23.112;2023-01-08T03:49:13;94394.50;;;-1.89;100.00
52105;BME280;38103;42.776;23.112;2023-01-08T03:51:41;94394.28;;;-1.78;100.00
52105;BME280;38103;42.776;23.112;2023-01-08T03:54:11;94395.88;;;-1.95;100.00
52105;BME280;38103;42.776;23.112;2023-01-08T03:56:37;94399.66;;;-1.89;100.00
52105;BME280;38103;42.776;23.112;2023-01-08T03:59:03;94403.00;;;-1.97;100.00
52105;BME280;38103;42.776;23.112;2023-01-08T04:01:28;94405.75;;;-1.99;100.00
52105;BME280;38103;42.776;23.112;2023-01-08T04:03:54;94393.22;;;-2.04;100.00
52105;BME280;38103;42.776;23.112;2023-01-08T04:06:19;94404.09;;;-2.00;100.00
52105;BME280;38103;42.776;23.112;2023-01-08T04:08:46;94370.13;;;-1.97;100.00
52105;BME280;38103;42.776;23.112;2023-01-08T04:11:12;94394.13;;;-1.76;100.00
52105;BME280;38103;42.776;23.112;2023-01-08T04:13:37;94398.63;;;-1.97;100.00
52105;BME280;38103;42.776;23.112;2023-01-08T04:16:03;94396.91;;;-2.06;100.00
52105;BME280;38103;42.776;23.112;2023-01-08T04:18:29;94399.03;;;-2.20;100.00
52105;BME280;38103;42.776;23.112;2023-01-08T04:20:54;94405.03;;;-2.29;100.00
52105;BME280;38103;42.776;23.112;2023-01-08T04:23:19;94392.91;;;-2.29;100.00
52105;BME280;38103;42.776;23.112;2023-01-08T04:25:45;94404.00;;;-2.08;100.00
52105;BME280;38103;42.776;23.112;2023-01-08T04:28:10;94388.00;;;-2.22;100.00
52105;BME280;38103;42.776;23.112;2023-01-08T04:30:36;94400.94;;;-2.22;100.00
52105;BME280;38103;42.776;23.112;2023-01-08T04:33:01;94400.69;;;-2.29;100.00
52105;BME280;38103;42.776;23.112;2023-01-08T04:35:27;94398.28;;;-2.40;100.00
52105;BME280;38103;42.776;23.112;2023-01-08T04:37:52;94399.63;;;-2.36;100.00
52105;BME280;38103;42.776;23.112;2023-01-08T04:40:17;94409.88;;;-2.34;100.00
52105;BME280;38103;42.776;23.112;2023-01-08T04:42:43;94408.66;;;-2.40;100.00
52105;BME280;38103;42.776;23.112;2023-01-08T04:45:09;94398.03;;;-2.47;100.00
52105;BME280;38103;42.776;23.112;2023-01-08T04:47:34;94403.50;;;-2.50;100.00
52105;BME280;38103;42.776;23.112;2023-01-08T04:49:59;94397.75;;;-2.44;100.00
52105;BME280;38103;42.776;23.112;2023-01-08T04:52:27;94374.94;;;-2.59;100.00
52105;BME280;38103;42.776;23.112;2023-01-08T04:54:52;94406.34;;;-2.43;100.00
52105;BME280;38103;42.776;23.112;2023-01-08T04:57:18;94406.44;;;-2.35;100.00
52105;BME280;38103;42.776;23.112;2023-01-08T04:59:43;94408.94;;;-2.15;100.00
52105;BME280;38103;42.776;23.112;2023-01-08T05:02:09;94410.31;;;-2.21;100.00
52105;BME280;38103;42.776;23.112;2023-01-08T05:04:34;94412.06;;;-2.11;100.00
52105;BME280;38103;42.776;23.112;2023-01-08T05:06:59;94411.09;;;-2.10;100.00
52105;BME280;38103;42.776;23.112;2023-01-08T05:09:25;94404.69;;;-2.34;100.00
52105;BME280;38103;42.776;23.112;2023-01-08T05:11:50;94408.13;;;-2.44;100.00
52105;BME280;38103;42.776;23.112;2023-01-08T05:14:15;94403.78;;;-2.53;100.00
52105;BME280;38103;42.776;23.112;2023-01-08T05:16:41;94411.41;;;-2.52;100.00
52105;BME280;38103;42.776;23.112;2023-01-08T05:19:06;94401.78;;;-2.31;100.00
52105;BME280;38103;42.776;23.112;2023-01-08T05:21:32;94407.69;;;-2.39;100.00
52105;BME280;38103;42.776;23.112;2023-01-08T05:23:57;94404.28;;;-2.40;100.00
52105;BME280;38103;42.776;23.112;2023-01-08T05:26:23;94403.59;;;-2.42;100.00
52105;BME280;38103;42.776;23.112;2023-01-08T05:28:48;94404.28;;;-2.40;100.00
52105;BME280;38103;42.776;23.112;2023-01-08T05:31:14;94411.00;;;-2.19;100.00
52105;BME280;38103;42.776;23.112;2023-01-08T05:33:40;94390.09;;;-2.36;100.00
52105;BME280;38103;42.776;23.112;2023-01-08T05:36:08;94407.06;;;-2.23;100.00
52105;BME280;38103;42.776;23.112;2023-01-08T05:38:34;94411.16;;;-2.20;100.00
52105;BME280;38103;42.776;23.112;2023-01-08T05:40:59;94412.97;;;-2.31;100.00
52105;BME280;38103;42.776;23.112;2023-01-08T05:43:25;94383.34;;;-2.56;100.00
52105;BME280;38103;42.776;23.112;2023-01-08T05:45:50;94413.56;;;-2.47;100.00
52105;BME280;38103;42.776;23.112;2023-01-08T05:48:16;94409.69;;;-2.61;100.00
52105;BME280;38103;42.776;23.112;2023-01-08T05:50:41;94366.88;;;-3.04;100.00
52105;BME280;38103;42.776;23.112;2023-01-08T05:53:07;94415.84;;;-2.72;100.00
52105;BME280;38103;42.776;23.112;2023-01-08T05:55:33;94409.84;;;-2.73;100.00
52105;BME280;38103;42.776;23.112;2023-01-08T05:58:00;94350.81;;;-2.97;100.00
52105;BME280;38103;42.776;23.112;2023-01-08T06:00:27;94395.38;;;-2.65;100.00
52105;BME280;38103;42.776;23.112;2023-01-08T06:02:52;94417.09;;;-2.38;100.00
52105;BME280;38103;42.776;23.112;2023-01-08T06:05:18;94413.78;;;-2.30;100.00
52105;BME280;38103;42.776;23.112;2023-01-08T06:07:43;94391.66;;;-2.53;100.00
52105;BME280;38103;42.776;23.112;2023-01-08T06:10:08;94418.75;;;-2.47;100.00
52105;BME280;38103;42.776;23.112;2023-01-08T06:12:34;94392.94;;;-2.67;100.00
52105;BME280;38103;42.776;23.112;2023-01-08T06:14:59;94416.16;;;-2.47;100.00
52105;BME280;38103;42.776;23.112;2023-01-08T06:17:24;94419.84;;;-2.40;100.00
52105;BME280;38103;42.776;23.112;2023-01-08T06:19:50;94415.31;;;-2.38;100.00
52105;BME280;38103;42.776;23.112;2023-01-08T06:22:15;94422.50;;;-2.31;100.00
52105;BME280;38103;42.776;23.112;2023-01-08T06:24:40;94418.25;;;-2.22;100.00
52105;BME280;38103;42.776;23.112;2023-01-08T06:27:06;94426.41;;;-1.89;100.00
52105;BME280;38103;42.776;23.112;2023-01-08T06:29:31;94435.38;;;-1.65;100.00
52105;BME280;38103;42.776;23.112;2023-01-08T06:31:57;94413.84;;;-1.65;100.00
52105;BME280;38103;42.776;23.112;2023-01-08T06:34:22;94431.72;;;-1.26;100.00
52105;BME280;38103;42.776;23.112;2023-01-08T06:36:47;94436.81;;;-0.97;100.00
52105;BME280;38103;42.776;23.112;2023-01-08T06:39:13;94446.69;;;-0.74;100.00
52105;BME280;38103;42.776;23.112;2023-01-08T06:41:38;94439.97;;;-0.67;100.00
52105;BME280;38103;42.776;23.112;2023-01-08T06:44:03;94438.03;;;-0.65;100.00
52105;BME280;38103;42.776;23.112;2023-01-08T06:46:29;94437.50;;;-0.42;100.00
52105;BME280;38103;42.776;23.112;2023-01-08T06:48:54;94438.28;;;-0.15;100.00
52105;BME280;38103;42.776;23.112;2023-01-08T06:51:20;94442.91;;;0.08;100.00
52105;BME280;38103;42.776;23.112;2023-01-08T06:53:48;94447.75;;;0.38;100.00
52105;BME280;38103;42.776;23.112;2023-01-08T06:56:13;94450.41;;;0.72;100.00
52105;BME280;38103;42.776;23.112;2023-01-08T06:58:39;94446.03;;;0.97;100.00
52105;BME280;38103;42.776;23.112;2023-01-08T07:01:05;94444.75;;;1.10;100.00
52105;BME280;38103;42.776;23.112;2023-01-08T07:03:30;94444.44;;;1.13;100.00
52105;BME280;38103;42.776;23.112;2023-01-08T07:05:56;94440.66;;;1.24;100.00
52105;BME280;38103;42.776;23.112;2023-01-08T07:08:22;94442.56;;;1.64;100.00
52105;BME280;38103;42.776;23.112;2023-01-08T07:10:47;94441.31;;;2.08;100.00
52105;BME280;38103;42.776;23.112;2023-01-08T07:13:13;94440.13;;;2.51;100.00
52105;BME280;38103;42.776;23.112;2023-01-08T07:15:39;94443.41;;;3.00;100.00
52105;BME280;38103;42.776;23.112;2023-01-08T07:18:06;94439.69;;;3.33;98.06
52105;BME280;38103;42.776;23.112;2023-01-08T07:20:33;94417.59;;;2.50;96.50
52105;BME280;38103;42.776;23.112;2023-01-08T07:23:08;94437.50;;;2.51;98.49
52105;BME280;38103;42.776;23.112;2023-01-08T07:25:34;94460.75;;;2.93;97.49
52105;BME280;38103;42.776;23.112;2023-01-08T07:28:00;94451.00;;;3.49;95.56
52105;BME280;38103;42.776;23.112;2023-01-08T07:30:26;94455.44;;;3.64;94.36
52105;BME280;38103;42.776;23.112;2023-01-08T07:32:51;94461.97;;;3.29;94.32
52105;BME280;38103;42.776;23.112;2023-01-08T07:35:17;94454.19;;;2.74;95.77
52105;BME280;38103;42.776;23.112;2023-01-08T07:37:43;94450.88;;;2.48;97.95
52105;BME280;38103;42.776;23.112;2023-01-08T07:40:10;94455.25;;;2.56;98.03
52105;BME280;38103;42.776;23.112;2023-01-08T07:42:36;94453.53;;;2.40;98.47
52105;BME280;38103;42.776;23.112;2023-01-08T07:45:01;94411.59;;;2.18;99.52
52105;BME280;38103;42.776;23.112;2023-01-08T07:47:27;94450.94;;;2.95;99.16
52105;BME280;38103;42.776;23.112;2023-01-08T07:49:52;94442.28;;;3.57;97.91
52105;BME280;38103;42.776;23.112;2023-01-08T07:52:18;94441.50;;;4.17;96.48
52105;BME280;38103;42.776;23.112;2023-01-08T07:54:43;94449.19;;;4.56;94.61
52105;BME280;38103;42.776;23.112;2023-01-08T07:57:09;94419.94;;;4.52;93.86
52105;BME280;38103;42.776;23.112;2023-01-08T07:59:34;94451.22;;;4.98;90.59
52105;BME280;38103;42.776;23.112;2023-01-08T08:01:59;94453.44;;;5.45;88.94
52105;BME280;38103;42.776;23.112;2023-01-08T08:04:25;94451.63;;;5.45;87.11
52105;BME280;38103;42.776;23.112;2023-01-08T08:06:50;94456.25;;;4.77;90.65
52105;BME280;38103;42.776;23.112;2023-01-08T08:09:15;94460.31;;;4.43;92.55
52105;BME280;38103;42.776;23.112;2023-01-08T08:11:41;94464.44;;;4.52;93.07
52105;BME280;38103;42.776;23.112;2023-01-08T08:14:07;94458.19;;;3.86;95.57
52105;BME280;38103;42.776;23.112;2023-01-08T08:16:33;94416.88;;;3.81;95.14
52105;BME280;38103;42.776;23.112;2023-01-08T08:18:59;94469.25;;;3.57;96.53
52105;BME280;38103;42.776;23.112;2023-01-08T08:21:25;94472.16;;;3.39;98.88
52105;BME280;38103;42.776;23.112;2023-01-08T08:23:50;94465.44;;;3.21;99.84
52105;BME280;38103;42.776;23.112;2023-01-08T08:26:16;94464.53;;;3.14;98.95
52105;BME280;38103;42.776;23.112;2023-01-08T08:28:42;94476.47;;;3.32;100.00
52105;BME280;38103;42.776;23.112;2023-01-08T08:31:07;94477.94;;;3.34;98.81
52105;BME280;38103;42.776;23.112;2023-01-08T08:33:33;94470.38;;;3.16;98.04
52105;BME280;38103;42.776;23.112;2023-01-08T08:35:58;94456.66;;;2.99;98.92
52105;BME280;38103;42.776;23.112;2023-01-08T08:38:23;94474.28;;;3.20;98.88
52105;BME280;38103;42.776;23.112;2023-01-08T08:40:50;94474.34;;;3.51;98.22
52105;BME280;38103;42.776;23.112;2023-01-08T08:43:16;94413.03;;;3.38;96.61
52105;BME280;38103;42.776;23.112;2023-01-08T08:45:41;94475.25;;;4.12;96.25
52105;BME280;38103;42.776;23.112;2023-01-08T08:48:07;94474.41;;;4.27;92.19
52105;BME280;38103;42.776;23.112;2023-01-08T08:50:33;94440.50;;;3.73;93.45
52105;BME280;38103;42.776;23.112;2023-01-08T08:53:00;94426.94;;;3.54;95.09
52105;BME280;38103;42.776;23.112;2023-01-08T08:55:26;94468.56;;;4.09;93.94
52105;BME280;38103;42.776;23.112;2023-01-08T08:57:52;94465.03;;;4.02;95.34
52105;BME280;38103;42.776;23.112;2023-01-08T09:00:17;94469.72;;;4.22;93.19
52105;BME280;38103;42.776;23.112;2023-01-08T09:02:43;94468.44;;;4.18;92.83
52105;BME280;38103;42.776;23.112;2023-01-08T09:05:09;94463.22;;;4.18;93.47
52105;BME280;38103;42.776;23.112;2023-01-08T09:07:35;94466.97;;;4.61;93.92
52105;BME280;38103;42.776;23.112;2023-01-08T09:10:00;94464.19;;;4.47;92.10
52105;BME280;38103;42.776;23.112;2023-01-08T09:12:27;94466.97;;;4.61;93.46
52105;BME280;38103;42.776;23.112;2023-01-08T09:14:52;94462.19;;;4.49;91.74
52105;BME280;38103;42.776;23.112;2023-01-08T09:17:19;94458.75;;;4.86;92.10
52105;BME280;38103;42.776;23.112;2023-01-08T09:19:45;94467.03;;;5.05;89.62
52105;BME280;38103;42.776;23.112;2023-01-08T09:22:11;94457.47;;;4.97;90.16
52105;BME280;38103;42.776;23.112;2023-01-08T09:24:36;94453.91;;;5.27;89.39
52105;BME280;38103;42.776;23.112;2023-01-08T09:27:02;94441.81;;;5.25;89.09
52105;BME280;38103;42.776;23.112;2023-01-08T09:29:27;94453.25;;;5.46;88.10
52105;BME280;38103;42.776;23.112;2023-01-08T09:31:52;94441.28;;;5.66;88.07
52105;BME280;38103;42.776;23.112;2023-01-08T09:34:18;94446.03;;;5.48;87.15
52105;BME280;38103;42.776;23.112;2023-01-08T09:36:43;94447.06;;;5.25;87.89
52105;BME280;38103;42.776;23.112;2023-01-08T09:39:09;94432.91;;;5.27;87.46
52105;BME280;38103;42.776;23.112;2023-01-08T09:41:41;94428.41;;;5.42;88.67
52105;BME280;38103;42.776;23.112;2023-01-08T09:44:14;94389.94;;;5.50;85.97
52105;BME280;38103;42.776;23.112;2023-01-08T09:46:40;94426.66;;;5.50;84.66
52105;BME280;38103;42.776;23.112;2023-01-08T09:49:11;94427.34;;;5.36;85.53
52105;BME280;38103;42.776;23.112;2023-01-08T09:51:37;94384.09;;;4.97;84.91
52105;BME280;38103;42.776;23.112;2023-01-08T09:54:04;94412.91;;;5.19;86.57
52105;BME280;38103;42.776;23.112;2023-01-08T09:56:32;94410.44;;;5.39;85.87
52105;BME280;38103;42.776;23.112;2023-01-08T09:59:00;94399.75;;;5.69;85.61
52105;BME280;38103;42.776;23.112;2023-01-08T10:01:29;94405.53;;;5.93;84.25
52105;BME280;38103;42.776;23.112;2023-01-08T10:06:23;94399.19;;;5.45;83.13
52105;BME280;38103;42.776;23.112;2023-01-08T10:08:50;94390.41;;;5.60;83.44
52105;BME280;38103;42.776;23.112;2023-01-08T10:11:17;94390.03;;;5.63;82.53
52105;BME280;38103;42.776;23.112;2023-01-08T10:13:49;94395.38;;;5.19;84.08
52105;BME280;38103;42.776;23.112;2023-01-08T10:18:51;94376.63;;;5.51;82.03
52105;BME280;38103;42.776;23.112;2023-01-08T10:21:16;94374.97;;;5.43;84.10
52105;BME280;38103;42.776;23.112;2023-01-08T10:23:52;94373.91;;;5.66;82.94
52105;BME280;38103;42.776;23.112;2023-01-08T10:26:31;94373.06;;;5.59;81.89
52105;BME280;38103;42.776;23.112;2023-01-08T10:29:11;94368.44;;;5.61;84.01
52105;BME280;38103;42.776;23.112;2023-01-08T10:31:56;94362.38;;;5.61;82.98
52105;BME280;38103;42.776;23.112;2023-01-08T10:37:22;94360.56;;;5.61;82.30
52105;BME280;38103;42.776;23.112;2023-01-08T10:39:49;94346.94;;;5.79;82.59
52105;BME280;38103;42.776;23.112;2023-01-08T10:42:16;94356.22;;;5.82;81.55
52105;BME280;38103;42.776;23.112;2023-01-08T10:44:58;94346.63;;;5.61;82.56
52105;BME280;38103;42.776;23.112;2023-01-08T10:47:27;94340.94;;;5.57;84.01
52105;BME280;38103;42.776;23.112;2023-01-08T10:49:56;94337.34;;;5.58;83.61
52105;BME280;38103;42.776;23.112;2023-01-08T10:52:30;94343.03;;;5.68;83.43
52105;BME280;38103;42.776;23.112;2023-01-08T10:55:29;94334.44;;;5.88;82.46
52105;BME280;38103;42.776;23.112;2023-01-08T10:58:02;94331.97;;;5.80;83.05
52105;BME280;38103;42.776;23.112;2023-01-08T11:00:33;94324.69;;;5.68;83.21
52105;BME280;38103;42.776;23.112;2023-01-08T11:03:05;94329.41;;;5.87;83.49
52105;BME280;38103;42.776;23.112;2023-01-08T11:05:39;94326.50;;;6.10;82.25
52105;BME280;38103;42.776;23.112;2023-01-08T11:08:07;94322.34;;;6.36;81.71
52105;BME280;38103;42.776;23.112;2023-01-08T11:10:38;94319.34;;;6.67;80.07
52105;BME280;38103;42.776;23.112;2023-01-08T11:13:05;94319.75;;;7.18;77.90
52105;BME280;38103;42.776;23.112;2023-01-08T11:15:42;94321.69;;;7.70;70.64
52105;BME280;38103;42.776;23.112;2023-01-08T11:20:37;94281.28;;;7.31;66.58
52105;BME280;38103;42.776;23.112;2023-01-08T11:25:39;94314.75;;;7.76;65.07
52105;BME280;38103;42.776;23.112;2023-01-08T11:28:11;94313.97;;;7.69;64.67
52105;BME280;38103;42.776;23.112;2023-01-08T11:30:43;94281.19;;;7.71;64.27
52105;BME280;38103;42.776;23.112;2023-01-08T11:33:17;94300.19;;;7.74;63.82
52105;BME280;38103;42.776;23.112;2023-01-08T11:35:49;94303.84;;;7.73;63.78
52105;BME280;38103;42.776;23.112;2023-01-08T11:38:18;94293.06;;;7.88;62.40
52105;BME280;38103;42.776;23.112;2023-01-08T11:40:50;94290.19;;;8.35;60.00
52105;BME280;38103;42.776;23.112;2023-01-08T11:56:58;94272.16;;;8.00;61.68
52105;BME280;38103;42.776;23.112;2023-01-08T12:07:58;94269.28;;;8.41;59.72
52105;BME280;38103;42.776;23.112;2023-01-08T12:27:24;94250.00;;;8.47;56.75
52105;BME280;38103;42.776;23.112;2023-01-08T12:32:45;94234.13;;;8.54;57.83
52105;BME280;38103;42.776;23.112;2023-01-08T12:35:19;94233.16;;;8.80;56.43
52105;BME280;38103;42.776;23.112;2023-01-08T12:40:30;94236.19;;;9.03;55.36
52105;BME280;38103;42.776;23.112;2023-01-08T12:42:57;94220.13;;;8.86;56.66
52105;BME280;38103;42.776;23.112;2023-01-08T12:45:28;94233.47;;;8.91;56.63
52105;BME280;38103;42.776;23.112;2023-01-08T12:48:03;94232.47;;;9.11;56.42
52105;BME280;38103;42.776;23.112;2023-01-08T12:53:06;94226.03;;;9.07;55.58
52105;BME280;38103;42.776;23.112;2023-01-08T13:03:57;94222.88;;;10.04;52.68
52105;BME280;38103;42.776;23.112;2023-01-08T13:06:23;94219.00;;;9.57;52.70
52105;BME280;38103;42.776;23.112;2023-01-08T13:08:54;94224.28;;;9.57;52.98
52105;BME280;38103;42.776;23.112;2023-01-08T13:11:29;94220.38;;;9.41;53.37
52105;BME280;38103;42.776;23.112;2023-01-08T13:14:05;94216.34;;;9.00;54.33
52105;BME280;38103;42.776;23.112;2023-01-08T13:16:39;94221.25;;;8.97;54.67
52105;BME280;38103;42.776;23.112;2023-01-08T13:19:19;94193.75;;;8.86;55.17
52105;BME280;38103;42.776;23.112;2023-01-08T13:22:04;94211.94;;;8.94;54.63
52105;BME280;38103;42.776;23.112;2023-01-08T13:24:36;94213.03;;;8.86;53.94
52105;BME280;38103;42.776;23.112;2023-01-08T13:27:28;94208.84;;;8.78;54.61
52105;BME280;38103;42.776;23.112;2023-01-08T13:29:55;94211.41;;;8.59;54.91
52105;BME280;38103;42.776;23.112;2023-01-08T13:37:46;94215.75;;;8.47;55.75
52105;BME280;38103;42.776;23.112;2023-01-08T13:40:35;94209.41;;;8.55;55.45
52105;BME280;38103;42.776;23.112;2023-01-08T13:43:02;94211.47;;;8.53;56.15
52105;BME280;38103;42.776;23.112;2023-01-08T13:45:29;94202.06;;;8.64;55.59
52105;BME280;38103;42.776;23.112;2023-01-08T13:47:55;94199.16;;;8.72;55.56
52105;BME280;38103;42.776;23.112;2023-01-08T13:50:23;94201.63;;;8.67;56.45
52105;BME280;38103;42.776;23.112;2023-01-08T13:53:00;94200.47;;;8.63;55.93
52105;BME280;38103;42.776;23.112;2023-01-08T13:55:35;94212.84;;;8.55;56.12
52105;BME280;38103;42.776;23.112;2023-01-08T13:58:04;94211.81;;;8.56;56.14
52105;BME280;38103;42.776;23.112;2023-01-08T14:03:29;94204.63;;;8.45;56.85
52105;BME280;38103;42.776;23.112;2023-01-08T14:06:20;94207.66;;;8.16;59.17
52105;BME280;38103;42.776;23.112;2023-01-08T14:08:56;94209.81;;;7.93;59.46
52105;BME280;38103;42.776;23.112;2023-01-08T14:11:43;94206.50;;;8.05;59.10
52105;BME280;38103;42.776;23.112;2023-01-08T14:14:20;94211.41;;;7.94;59.24
52105;BME280;38103;42.776;23.112;2023-01-08T14:16:47;94168.69;;;7.60;59.41
52105;BME280;38103;42.776;23.112;2023-01-08T14:19:15;94212.34;;;7.75;59.99
52105;BME280;38103;42.776;23.112;2023-01-08T14:21:49;94206.31;;;7.67;60.38